createdAt,value
2018-10-21T00:00:55.097Z,10.53
2018-10-21T00:03:25.105Z,9.45
2018-10-21T00:05:55.022Z,9.88
2018-10-21T00:08:24.909Z,10.43
2018-10-21T00:10:54.953Z,9.68
2018-10-21T00:13:24.908Z,11.00
2018-10-21T00:15:54.777Z,9.45
2018-10-21T00:18:24.732Z,8.85
2018-10-21T00:20:54.647Z,9.08
2018-10-21T00:23:24.546Z,10.35
2018-10-21T00:25:54.466Z,10.70
2018-10-21T00:28:24.360Z,10.28
2018-10-21T00:30:54.375Z,9.73
2018-10-21T00:33:24.256Z,9.25
2018-10-21T00:35:54.149Z,9.50
2018-10-21T00:38:24.038Z,10.88
2018-10-21T00:40:53.967Z,10.95
2018-10-21T00:43:23.851Z,12.33
2018-10-21T00:45:53.735Z,11.28
2018-10-21T00:48:24.291Z,10.88
2018-10-21T00:50:54.318Z,10.88
2018-10-21T00:53:24.169Z,11.20
2018-10-21T00:55:54.721Z,10.00
2018-10-21T00:58:24.605Z,10.23
2018-10-21T01:00:54.544Z,10.38
2018-10-21T01:03:24.510Z,11.43
2018-10-21T01:05:54.413Z,9.58
2018-10-21T01:08:24.400Z,9.73
2018-10-21T01:10:54.354Z,9.60
2018-10-21T01:13:24.281Z,10.80
2018-10-21T01:15:54.166Z,10.25
2018-10-21T01:18:24.116Z,10.20
2018-10-21T01:20:54.069Z,10.88
2018-10-21T01:23:24.021Z,9.03
2018-10-21T01:25:53.917Z,10.80
2018-10-21T01:28:23.850Z,9.60
2018-10-21T01:30:53.709Z,8.50
2018-10-21T01:33:23.602Z,10.03
2018-10-21T01:35:53.544Z,9.60
2018-10-21T01:38:23.806Z,9.75
2018-10-21T01:40:55.001Z,9.03
2018-10-21T01:43:26.080Z,10.40
2018-10-21T01:45:56.386Z,8.95
2018-10-21T01:48:27.476Z,9.35
2018-10-21T01:50:57.539Z,11.53
2018-10-21T01:53:27.486Z,10.13
2018-10-21T01:55:57.457Z,8.53
2018-10-21T01:58:27.448Z,9.90
2018-10-21T02:00:57.616Z,10.13
2018-10-21T02:03:27.511Z,9.30
2018-10-21T02:05:57.461Z,10.00
2018-10-21T02:08:28.384Z,9.10
2018-10-21T02:10:58.357Z,8.55
2018-10-21T02:13:28.266Z,9.00
2018-10-21T02:15:58.196Z,8.85
2018-10-21T02:18:28.138Z,10.30
2018-10-21T02:20:58.393Z,10.80
2018-10-21T02:23:28.628Z,10.30
2018-10-21T02:25:58.537Z,8.55
2018-10-21T02:28:28.426Z,8.60
2018-10-21T02:30:58.314Z,8.70
2018-10-21T02:33:28.362Z,10.35
2018-10-21T02:35:58.155Z,9.73
2018-10-21T02:38:28.113Z,11.03
2018-10-21T02:41:41.474Z,13.08
2018-10-21T02:44:18.821Z,12.18
2018-10-21T02:46:49.485Z,13.55
2018-10-21T02:49:20.025Z,12.28
2018-10-21T02:51:55.297Z,12.00
2018-10-21T02:54:26.454Z,10.25
2018-10-21T02:56:56.396Z,9.83
2018-10-21T02:59:26.569Z,10.13
2018-10-21T03:01:56.543Z,11.95
2018-10-21T03:04:26.469Z,12.23
2018-10-21T03:06:56.465Z,12.07
2018-10-21T03:09:27.385Z,13.88
2018-10-21T03:11:57.278Z,12.35
2018-10-21T03:14:27.246Z,11.35
2018-10-21T03:16:57.148Z,10.70
2018-10-21T03:19:27.077Z,11.60
2018-10-21T03:21:57.153Z,10.88
2018-10-21T03:24:27.113Z,9.93
2018-10-21T03:26:57.037Z,10.28
2018-10-21T03:29:27.001Z,9.20
2018-10-21T03:31:56.902Z,8.95
2018-10-21T03:34:26.821Z,8.78
2018-10-21T03:36:56.720Z,10.18
2018-10-21T03:39:26.612Z,10.93
2018-10-21T03:41:56.594Z,11.03
2018-10-21T03:47:24.761Z,12.63
2018-10-21T03:49:54.685Z,12.33
2018-10-21T03:52:24.602Z,12.15
2018-10-21T03:54:54.487Z,12.37
2018-10-21T03:57:24.441Z,11.35
2018-10-21T03:59:54.361Z,10.30
2018-10-21T04:02:24.309Z,9.50
2018-10-21T04:04:54.201Z,10.00
2018-10-21T04:07:24.104Z,10.43
2018-10-21T04:09:54.168Z,10.75
2018-10-21T04:12:24.066Z,10.48
2018-10-21T04:14:54.005Z,9.55
2018-10-21T04:17:24.312Z,9.38
2018-10-21T04:19:54.202Z,9.38
2018-10-21T04:22:24.425Z,9.15
2018-10-21T04:24:54.330Z,9.58
2018-10-21T04:27:24.867Z,11.08
2018-10-21T04:29:54.800Z,11.53
2018-10-21T04:32:24.745Z,10.30
2018-10-21T04:34:54.645Z,10.30
2018-10-21T04:38:45.580Z,9.33
2018-10-21T04:41:15.501Z,8.88
2018-10-21T04:43:45.768Z,9.18
2018-10-21T04:46:15.703Z,8.20
2018-10-21T04:48:45.582Z,9.40
2018-10-21T04:51:15.509Z,9.28
2018-10-21T04:53:45.441Z,8.53
2018-10-21T04:56:15.422Z,8.68
2018-10-21T04:58:45.320Z,8.35
2018-10-21T05:01:15.226Z,8.73
2018-10-21T05:03:45.142Z,9.38
2018-10-21T05:06:15.078Z,10.75
2018-10-21T05:08:44.974Z,10.50
2018-10-21T05:11:14.853Z,9.83
2018-10-21T05:13:44.804Z,9.60
2018-10-21T05:16:14.747Z,9.63
2018-10-21T05:18:44.861Z,9.50
2018-10-21T05:21:14.928Z,9.35
2018-10-21T05:23:44.856Z,11.08
2018-10-21T05:26:14.757Z,10.50
2018-10-21T05:28:44.695Z,9.60
2018-10-21T05:31:14.625Z,9.53
2018-10-21T05:33:44.565Z,9.73
2018-10-21T05:36:14.454Z,10.48
2018-10-21T05:38:44.339Z,11.55
2018-10-21T05:41:14.270Z,10.98
2018-10-21T05:43:44.334Z,11.88
2018-10-21T05:46:31.429Z,11.45
2018-10-21T05:49:01.289Z,10.98
2018-10-21T05:51:31.205Z,9.33
2018-10-21T05:54:01.092Z,9.78
2018-10-21T05:56:30.984Z,9.78
2018-10-21T05:59:01.177Z,10.30
2018-10-21T06:01:31.136Z,9.85
2018-10-21T06:04:01.023Z,9.58
2018-10-21T06:06:30.949Z,10.75
2018-10-21T06:09:00.826Z,12.13
2018-10-21T06:11:30.725Z,10.98
2018-10-21T06:14:01.246Z,11.18
2018-10-21T06:16:35.553Z,11.93
2018-10-21T06:19:07.125Z,13.30
2018-10-21T06:21:37.081Z,16.15
2018-10-21T06:24:07.061Z,14.13
2018-10-21T06:26:37.322Z,14.45
2018-10-21T06:29:07.449Z,13.80
2018-10-21T06:31:37.525Z,12.10
2018-10-21T06:34:07.445Z,11.28
2018-10-21T06:36:37.427Z,12.13
2018-10-21T06:39:07.613Z,11.30
2018-10-21T06:41:37.565Z,12.05
2018-10-21T06:44:07.517Z,11.43
2018-10-21T06:46:37.425Z,11.80
2018-10-21T06:49:07.311Z,11.78
2018-10-21T06:51:37.438Z,11.80
2018-10-21T06:54:07.345Z,12.90
2018-10-21T06:56:37.661Z,14.75
2018-10-21T06:59:07.513Z,15.03
2018-10-21T07:01:37.412Z,13.40
2018-10-21T07:04:07.805Z,12.33
2018-10-21T07:06:37.724Z,15.53
2018-10-21T07:09:07.702Z,16.75
2018-10-21T07:11:37.595Z,15.05
2018-10-21T07:14:07.481Z,15.93
2018-10-21T07:16:37.505Z,17.62
2018-10-21T07:19:07.573Z,19.42
2018-10-21T07:21:37.594Z,18.40
2018-10-21T07:24:07.481Z,21.10
2018-10-21T07:26:37.401Z,19.85
2018-10-21T07:29:07.305Z,19.82
2018-10-21T07:31:37.192Z,19.20
2018-10-21T07:34:07.143Z,18.20
2018-10-21T07:36:37.285Z,17.15
2018-10-21T07:39:09.693Z,18.65
2018-10-21T07:41:39.733Z,18.02
2018-10-21T07:44:09.644Z,17.70
2018-10-21T07:46:39.757Z,19.17
2018-10-21T07:49:09.718Z,19.07
2018-10-21T07:51:39.697Z,20.32
2018-10-21T07:54:09.614Z,19.35
2018-10-21T07:56:39.529Z,19.57
2018-10-21T07:59:09.458Z,19.32
2018-10-21T08:01:39.345Z,19.48
2018-10-21T08:04:09.303Z,19.40
2018-10-21T08:07:57.446Z,17.00
2018-10-21T08:10:27.778Z,16.90
2018-10-21T08:12:57.700Z,18.50
2018-10-21T08:15:28.085Z,18.12
2018-10-21T08:17:57.982Z,18.10
2018-10-21T08:20:27.972Z,17.37
2018-10-21T08:22:57.936Z,17.50
2018-10-21T08:25:28.181Z,16.87
2018-10-21T08:27:58.121Z,18.48
2018-10-21T08:30:28.005Z,16.30
2018-10-21T08:32:57.978Z,18.12
2018-10-21T08:35:27.898Z,15.40
2018-10-21T08:37:57.778Z,16.77
2018-10-21T08:40:27.932Z,16.93
2018-10-21T08:42:57.817Z,15.80
2018-10-21T08:45:28.041Z,17.70
2018-10-21T08:47:57.993Z,14.57
2018-10-21T08:50:27.916Z,14.47
2018-10-21T08:52:57.849Z,15.30
2018-10-21T08:55:27.796Z,15.97
2018-10-21T08:57:57.798Z,15.80
2018-10-21T09:00:27.696Z,13.13
2018-10-21T09:02:57.601Z,13.80
2018-10-21T09:05:27.565Z,11.20
2018-10-21T09:07:57.478Z,10.03
2018-10-21T09:10:28.425Z,10.37
2018-10-21T09:12:58.273Z,11.00
2018-10-21T09:15:28.209Z,10.90
2018-10-21T09:17:58.150Z,10.67
2018-10-21T09:20:28.050Z,9.60
2018-10-21T09:22:58.025Z,8.37
2018-10-21T09:25:28.039Z,8.10
2018-10-21T09:27:58.059Z,6.70
2018-10-21T09:30:28.033Z,6.67
2018-10-21T09:32:57.925Z,7.60
2018-10-21T09:35:27.833Z,7.40
2018-10-21T09:37:57.776Z,6.10
2018-10-21T09:40:30.673Z,7.40
2018-10-21T09:43:00.610Z,8.87
2018-10-21T09:45:30.509Z,7.20
2018-10-21T09:48:00.465Z,6.97
2018-10-21T09:50:30.398Z,7.17
2018-10-21T09:53:00.281Z,7.50
2018-10-21T09:55:30.209Z,7.23
2018-10-21T09:58:00.157Z,7.60
2018-10-21T10:00:35.477Z,7.27
2018-10-21T10:03:06.687Z,6.40
2018-10-21T10:05:36.626Z,6.17
2018-10-21T10:08:06.638Z,7.17
2018-10-21T10:10:36.522Z,6.17
2018-10-21T10:13:06.692Z,5.63
2018-10-21T10:15:36.660Z,4.20
2018-10-21T10:18:06.577Z,3.60
2018-10-21T10:20:36.463Z,3.73
2018-10-21T10:23:06.646Z,3.90
2018-10-21T10:25:36.537Z,4.33
2018-10-21T10:28:07.350Z,3.87
2018-10-21T10:30:37.376Z,4.30
2018-10-21T10:33:07.266Z,4.97
2018-10-21T10:35:37.187Z,4.47
2018-10-21T10:38:07.108Z,2.83
2018-10-21T10:40:37.025Z,3.27
2018-10-21T10:43:07.431Z,3.70
2018-10-21T10:45:37.393Z,3.80
2018-10-21T10:48:07.761Z,3.50
2018-10-21T10:50:37.677Z,2.93
2018-10-21T10:53:07.748Z,3.40
2018-10-21T10:55:42.997Z,3.17
2018-10-21T10:58:12.954Z,2.53
2018-10-21T11:00:42.769Z,3.20
2018-10-21T11:03:13.162Z,2.17
2018-10-21T11:05:43.231Z,2.93
2018-10-21T11:08:13.192Z,2.70
2018-10-21T11:10:43.084Z,3.13
2018-10-21T11:13:13.036Z,2.43
2018-10-21T11:15:42.920Z,1.63
2018-10-21T11:18:12.813Z,1.87
2018-10-21T11:20:42.731Z,1.87
2018-10-21T11:23:12.601Z,2.20
2018-10-21T11:25:42.489Z,3.20
2018-10-21T11:28:12.552Z,2.23
2018-10-21T11:30:42.324Z,3.00
2018-10-21T11:33:12.269Z,2.20
2018-10-21T11:35:42.184Z,2.00
2018-10-21T11:38:12.144Z,2.07
2018-10-21T11:40:42.089Z,2.43
2018-10-21T11:43:12.582Z,1.97
2018-10-21T11:45:42.572Z,2.00
2018-10-21T11:48:12.631Z,1.60
2018-10-21T11:50:42.741Z,1.57
2018-10-21T11:53:12.640Z,2.33
2018-10-21T11:55:43.203Z,1.47
2018-10-21T11:58:14.507Z,1.43
2018-10-21T12:00:45.752Z,1.67
2018-10-21T12:03:15.657Z,1.70
2018-10-21T12:05:45.693Z,1.50
2018-10-21T12:08:15.653Z,1.80
2018-10-21T12:10:45.646Z,2.40
2018-10-21T12:13:15.625Z,1.90
2018-10-21T12:15:45.487Z,1.47
2018-10-21T12:18:15.385Z,1.50
2018-10-21T12:20:45.333Z,1.40
2018-10-21T12:23:15.289Z,1.33
2018-10-21T12:25:45.262Z,1.67
2018-10-21T12:28:15.167Z,1.80
2018-10-21T12:30:44.996Z,1.73
2018-10-21T12:33:14.956Z,2.73
2018-10-21T12:35:45.034Z,1.60
2018-10-21T12:38:14.969Z,2.17
2018-10-21T12:40:44.912Z,1.83
2018-10-21T12:43:14.843Z,2.27
2018-10-21T12:45:44.734Z,1.27
2018-10-21T12:48:14.642Z,1.73
2018-10-21T12:50:44.545Z,1.87
2018-10-21T12:53:14.647Z,1.40
2018-10-21T12:55:47.405Z,1.63
2018-10-21T12:58:17.701Z,2.13
2018-10-21T13:00:47.688Z,1.40
2018-10-21T13:03:17.909Z,1.70
2018-10-21T13:05:47.800Z,2.00
2018-10-21T13:08:18.045Z,1.13
2018-10-21T13:10:48.110Z,2.00
2018-10-21T13:13:18.032Z,1.83
2018-10-21T13:15:48.001Z,1.70
2018-10-21T13:18:17.929Z,1.70
2018-10-21T13:20:47.893Z,1.80
2018-10-21T13:23:17.949Z,1.83
2018-10-21T13:25:48.334Z,1.73
2018-10-21T13:28:18.274Z,1.50
2018-10-21T13:30:48.160Z,1.80
2018-10-21T13:33:18.316Z,2.00
2018-10-21T13:35:48.253Z,1.77
2018-10-21T13:38:18.180Z,1.60
2018-10-21T13:40:48.161Z,1.50
2018-10-21T13:43:18.111Z,1.50
2018-10-21T13:45:48.001Z,1.90
2018-10-21T13:48:17.862Z,1.90
2018-10-21T13:50:47.779Z,1.73
2018-10-21T13:53:17.770Z,2.07
2018-10-21T13:55:47.648Z,2.10
2018-10-21T13:58:17.672Z,2.20
2018-10-21T14:00:47.495Z,1.90
2018-10-21T14:03:17.381Z,1.70
2018-10-21T14:05:47.413Z,2.53
2018-10-21T14:08:17.329Z,1.53
2018-10-21T14:10:47.220Z,1.83
2018-10-21T14:13:17.196Z,2.37
2018-10-21T14:15:47.068Z,2.30
2018-10-21T14:18:16.976Z,1.97
2018-10-21T14:20:47.098Z,2.43
2018-10-21T14:23:17.049Z,1.77
2018-10-21T14:25:47.016Z,2.20
2018-10-21T14:28:16.898Z,2.40
2018-10-21T14:30:46.948Z,1.80
2018-10-21T14:33:16.926Z,1.80
2018-10-21T14:35:47.001Z,1.80
2018-10-21T14:38:16.925Z,1.53
2018-10-21T14:40:46.895Z,2.03
2018-10-21T14:43:16.908Z,1.70
2018-10-21T14:45:47.043Z,2.00
2018-10-21T14:48:17.102Z,2.03
2018-10-21T14:50:46.936Z,2.63
2018-10-21T14:53:16.890Z,1.93
2018-10-21T14:55:46.756Z,2.00
2018-10-21T14:58:16.646Z,1.83
2018-10-21T15:00:46.730Z,2.43
2018-10-21T15:03:16.650Z,3.90
2018-10-21T15:05:46.477Z,3.47
2018-10-21T15:08:16.457Z,3.07
2018-10-21T15:10:46.345Z,2.10
2018-10-21T15:13:16.261Z,1.93
2018-10-21T15:15:46.698Z,2.20
2018-10-21T15:18:16.762Z,2.03
2018-10-21T15:20:46.614Z,2.03
2018-10-21T15:23:16.600Z,2.17
2018-10-21T15:25:46.466Z,1.77
2018-10-21T15:28:16.462Z,1.67
2018-10-21T15:30:46.413Z,1.90
2018-10-21T15:33:16.320Z,2.07
2018-10-21T15:35:46.234Z,1.73
2018-10-21T15:38:16.204Z,2.00
2018-10-21T15:40:46.194Z,2.07
2018-10-21T15:43:16.165Z,1.80
2018-10-21T15:45:46.298Z,1.70
2018-10-21T15:48:16.185Z,2.50
2018-10-21T15:50:46.145Z,2.37
2018-10-21T15:53:16.321Z,2.43
2018-10-21T15:55:46.292Z,2.50
2018-10-21T15:58:16.296Z,2.90
2018-10-21T16:00:46.450Z,2.60
2018-10-21T16:03:16.433Z,2.30
2018-10-21T16:05:46.406Z,2.53
2018-10-21T16:08:16.366Z,3.47
2018-10-21T16:10:46.218Z,4.90
2018-10-21T16:13:16.226Z,3.53
2018-10-21T16:15:46.319Z,3.13
2018-10-21T16:18:16.631Z,3.43
2018-10-21T16:20:46.587Z,3.40
2018-10-21T16:23:16.533Z,4.10
2018-10-21T16:25:46.699Z,3.97
2018-10-21T16:28:16.793Z,2.97
2018-10-21T16:30:46.891Z,3.77
2018-10-21T16:33:16.825Z,3.37
2018-10-21T16:35:46.943Z,2.57
2018-10-21T16:38:16.909Z,3.70
2018-10-21T16:40:46.841Z,3.07
2018-10-21T16:43:16.777Z,3.63
2018-10-21T16:45:46.674Z,3.43
2018-10-21T16:48:16.959Z,3.83
2018-10-21T16:50:46.951Z,3.70
2018-10-21T16:53:16.837Z,4.03
2018-10-21T16:55:46.929Z,3.60
2018-10-21T16:58:16.850Z,4.20
2018-10-21T17:00:46.861Z,4.43
2018-10-21T17:03:16.962Z,4.10
2018-10-21T17:05:46.976Z,4.83
2018-10-21T17:08:16.755Z,4.43
2018-10-21T17:10:46.998Z,5.00
2018-10-21T17:13:16.749Z,5.40
2018-10-21T17:15:46.885Z,6.00
2018-10-21T17:18:16.734Z,5.63
2018-10-21T17:20:46.763Z,6.10
2018-10-21T17:23:16.669Z,5.77
2018-10-21T17:25:46.602Z,6.30
2018-10-21T17:28:16.560Z,6.10
2018-10-21T17:30:46.365Z,6.17
2018-10-21T17:33:16.268Z,7.63
2018-10-21T17:35:46.157Z,7.30
2018-10-21T17:38:16.141Z,21.95
2018-10-21T17:40:46.092Z,11.50
2018-10-21T17:43:16.096Z,8.85
2018-10-21T17:45:45.917Z,7.58
2018-10-21T17:48:16.108Z,7.47
2018-10-21T17:50:46.067Z,7.73
2018-10-21T17:53:15.957Z,6.87
2018-10-21T17:55:45.889Z,6.62
2018-10-21T17:58:15.973Z,7.90
2018-10-21T18:00:46.081Z,7.20
2018-10-21T18:03:16.068Z,6.60
2018-10-21T18:05:45.962Z,7.75
2018-10-21T18:08:15.858Z,7.25
2018-10-21T18:10:45.825Z,8.18
2018-10-21T18:13:15.907Z,7.85
2018-10-21T18:15:45.699Z,7.42
2018-10-21T18:18:15.635Z,7.30
2018-10-21T18:20:45.748Z,7.12
2018-10-21T18:23:15.520Z,14.28
2018-10-21T18:25:45.696Z,40.55
2018-10-21T18:28:16.138Z,12.68
2018-10-21T18:30:46.229Z,7.47
2018-10-21T18:33:16.247Z,6.80
2018-10-21T18:35:46.198Z,6.25
2018-10-21T18:38:16.090Z,6.58
2018-10-21T18:40:46.180Z,6.90
2018-10-21T18:43:16.006Z,6.05
2018-10-21T18:45:45.830Z,6.15
2018-10-21T18:48:15.771Z,6.40
2018-10-21T18:50:45.780Z,6.67
2018-10-21T18:53:15.732Z,7.47
2018-10-21T18:55:45.636Z,7.67
2018-10-21T18:58:15.708Z,7.37
2018-10-21T19:00:45.488Z,7.70
2018-10-21T19:03:15.433Z,8.65
2018-10-21T19:05:45.346Z,9.35
2018-10-21T19:08:15.247Z,8.75
2018-10-21T19:10:45.197Z,9.60
2018-10-21T19:13:15.182Z,9.80
2018-10-21T19:15:45.073Z,9.90
2018-10-21T19:18:14.972Z,9.05
2018-10-21T19:20:45.229Z,9.03
2018-10-21T19:23:15.123Z,8.80
2018-10-21T19:25:45.010Z,8.53
2018-10-21T19:28:15.002Z,8.70
2018-10-21T19:30:44.862Z,7.80
2018-10-21T19:33:14.752Z,7.17
2018-10-21T19:35:44.632Z,6.90
2018-10-21T19:38:14.548Z,7.45
2018-10-21T19:40:44.465Z,8.23
2018-10-21T19:43:14.416Z,6.83
2018-10-21T19:45:44.566Z,8.25
2018-10-21T19:48:14.463Z,6.62
2018-10-21T19:50:44.333Z,7.10
2018-10-21T19:53:14.329Z,8.60
2018-10-21T19:55:44.205Z,7.10
2018-10-21T19:58:14.125Z,7.37
2018-10-21T20:00:43.972Z,8.15
2018-10-21T20:03:13.933Z,7.60
2018-10-21T20:05:43.866Z,7.47
2018-10-21T20:08:13.766Z,8.15
2018-10-21T20:10:43.799Z,7.17
2018-10-21T20:13:13.754Z,7.92
2018-10-21T20:15:50.420Z,8.00
2018-10-21T20:18:20.355Z,7.35
2018-10-21T20:20:50.368Z,8.40
2018-10-21T20:23:20.381Z,7.40
2018-10-21T20:25:50.378Z,8.30
2018-10-21T20:28:20.276Z,9.28
2018-10-21T20:30:50.573Z,9.00
2018-10-21T20:33:20.455Z,8.13
2018-10-21T20:35:50.279Z,9.35
2018-10-21T20:38:20.395Z,8.40
2018-10-21T20:40:50.216Z,10.45
2018-10-21T20:43:20.133Z,11.18
2018-10-21T20:45:50.057Z,11.20
2018-10-21T20:48:20.012Z,11.95
2018-10-21T20:50:49.900Z,13.60
2018-10-21T20:53:19.795Z,14.83
2018-10-21T20:55:49.703Z,14.53
2018-10-21T20:58:19.770Z,16.67
2018-10-21T21:00:49.741Z,15.23
2018-10-21T21:03:19.628Z,17.05
2018-10-21T21:05:49.504Z,17.20
2018-10-21T21:08:19.686Z,16.55
2018-10-21T21:10:49.596Z,17.37
2018-10-21T21:13:19.550Z,15.28
2018-10-21T21:16:53.036Z,13.93
2018-10-21T21:19:23.118Z,11.95
2018-10-21T21:21:53.149Z,12.85
2018-10-21T21:24:23.725Z,12.68
2018-10-21T21:26:53.626Z,11.25
2018-10-21T21:29:23.505Z,11.30
2018-10-21T21:31:53.773Z,12.13
2018-10-21T21:34:23.688Z,11.90
2018-10-21T21:36:53.624Z,13.43
2018-10-21T21:39:23.540Z,13.55
2018-10-21T21:41:53.456Z,13.78
2018-10-21T21:44:24.328Z,14.43
2018-10-21T21:46:54.239Z,12.58
2018-10-21T21:49:24.316Z,13.18
2018-10-21T21:51:54.369Z,14.10
2018-10-21T21:54:24.217Z,11.53
2018-10-21T21:56:54.109Z,11.73
2018-10-21T21:59:24.045Z,10.95
2018-10-21T22:01:54.229Z,11.90
2018-10-21T22:04:24.318Z,10.15
2018-10-21T22:06:54.197Z,10.68
2018-10-21T22:09:24.401Z,10.08
2018-10-21T22:11:54.323Z,9.33
2018-10-21T22:14:24.201Z,9.30
2018-10-21T22:16:54.077Z,10.43
2018-10-21T22:19:24.318Z,10.90
2018-10-21T22:21:54.300Z,10.58
2018-10-21T22:24:24.181Z,10.60
2018-10-21T22:26:54.093Z,11.70
2018-10-21T22:29:24.057Z,10.50
2018-10-21T22:31:54.006Z,12.58
2018-10-21T22:34:23.889Z,13.35
2018-10-21T22:36:54.085Z,13.08
2018-10-21T22:39:24.648Z,12.07
2018-10-21T22:41:54.775Z,11.78
2018-10-21T22:44:24.668Z,11.25
2018-10-21T22:46:54.689Z,11.75
2018-10-21T22:49:24.625Z,12.15
2018-10-21T22:51:54.559Z,13.10
2018-10-21T22:54:24.445Z,12.75
2018-10-21T22:56:54.321Z,11.68
2018-10-21T22:59:24.266Z,13.00
2018-10-21T23:01:54.229Z,12.53
2018-10-21T23:04:24.177Z,12.37
2018-10-21T23:06:54.088Z,10.68
2018-10-21T23:09:23.999Z,10.80
2018-10-21T23:11:54.009Z,10.95
2018-10-21T23:14:23.829Z,9.30
2018-10-21T23:16:53.870Z,10.30
2018-10-21T23:19:50.041Z,9.18
2018-10-21T23:22:20.055Z,8.33
2018-10-21T23:24:49.932Z,10.50
2018-10-21T23:27:20.048Z,9.58
2018-10-21T23:29:49.921Z,9.53
2018-10-21T23:32:19.813Z,9.20
2018-10-21T23:34:49.741Z,8.50
2018-10-21T23:37:19.609Z,7.95
2018-10-21T23:39:49.651Z,8.00
2018-10-21T23:42:19.635Z,7.30
2018-10-21T23:44:49.542Z,7.95
2018-10-21T23:47:19.461Z,7.90
2018-10-21T23:49:49.438Z,7.75
2018-10-21T23:52:19.382Z,7.35
2018-10-21T23:54:49.269Z,8.60
2018-10-21T23:57:19.202Z,7.33
2018-10-21T23:59:49.141Z,8.95
